PST,Max TemperatureF,Mean TemperatureF,Min TemperatureF,Max Dew PointF,MeanDew PointF,Min DewpointF,Max Humidity, Mean Humidity, Min Humidity, Max Sea Level PressureIn, Mean Sea Level PressureIn, Min Sea Level PressureIn, Max VisibilityMiles, Mean VisibilityMiles, Min VisibilityMiles, Max Wind SpeedMPH, Mean Wind SpeedMPH, Max Gust SpeedMPH,PrecipitationIn, CloudCover, Events, WindDirDegrees
2013-11-1,75,58,41,41,39,37,87,63,27,30.18,30.10,30.01,10,10,10,5,1,,0.00,0,,303
2013-11-2,75,55,35,46,40,34,81,57,33,30.02,29.95,29.86,10,10,10,8,2,,0.00,2,,178
2013-11-3,64,56,48,39,28,25,48,34,22,30.02,29.95,29.91,10,10,10,15,10,28,0.00,4,,318
2013-11-4,68,56,44,28,27,23,53,32,18,30.04,29.97,29.93,10,10,10,23,12,30,0.00,0,,324
2013-11-5,68,52,37,32,28,27,65,41,21,30.23,30.16,30.05,10,10,10,7,3,,0.00,1,,141
2013-11-6,71,56,42,70,36,30,94,50,22,30.28,30.23,30.19,10,10,8,6,2,,0.00,3,,3
2013-11-7,75,58,42,41,35,32,76,45,21,30.18,30.12,30.05,10,10,10,7,3,,0.00,4,,141
2013-11-8,73,58,42,41,35,30,66,45,23,30.07,30.02,29.94,10,10,10,5,1,,0.00,0,,82
2013-11-9,73,57,41,39,38,36,81,48,29,30.04,30.00,29.97,10,10,10,6,2,,0.00,0,,56
2013-11-10,73,57,41,41,38,36,81,47,29,30.10,30.06,30.04,10,10,10,6,2,,0.00,0,,248
2013-11-11,71,55,39,43,39,36,93,57,29,30.17,30.12,30.08,10,10,8,7,2,,0.00,5,,82
2013-11-12,69,58,48,41,39,37,71,48,31,30.25,30.22,30.18,10,10,10,8,3,,0.00,5,,319
2013-11-13,75,58,41,41,37,36,81,56,25,30.24,30.16,30.06,10,10,10,10,2,,0.00,1,,320
2013-11-14,66,56,46,48,42,37,87,64,48,30.09,29.99,29.83,10,10,10,8,4,,0.00,4,,173
2013-11-15,68,54,39,43,36,28,100,66,24,29.83,29.78,29.70,10,10,10,14,4,17,0.00,0,Fog,328
2013-11-16,62,50,39,41,35,32,75,62,37,29.88,29.81,29.75,10,10,10,8,6,,0.00,0,,138
2013-11-17,62,50,37,45,41,34,87,69,52,30.07,30.03,29.96,10,10,10,7,2,,0.00,1,,216
2013-11-18,68,54,39,46,43,37,93,73,40,30.15,30.10,30.01,10,10,7,10,4,,0.00,5,,191
2013-11-19,62,56,50,54,48,45,100,79,59,30.11,30.03,29.97,10,9,5,7,4,,0.00,8,Rain,133
2013-11-20,57,55,53,55,54,54,100,99,94,29.97,29.91,29.86,10,4,2,15,8,,0.00,8,Rain,143
2013-11-21,64,56,48,55,39,25,100,63,30,29.98,29.92,29.87,10,9,3,22,10,29,0.00,4,Rain,325
2013-11-22,71,56,41,41,25,12,93,39,10,30.04,29.98,29.91,10,10,10,26,14,32,0.00,1,,344
2013-11-23,62,50,37,45,41,37,100,83,45,30.08,30.04,30.01,10,6,2,7,3,,0.00,0,Fog,78
2013-11-24,60,48,37,41,39,36,93,69,48,30.23,30.19,30.14,10,10,10,5,1,,0.00,1,,305
2013-11-25,62,50,37,41,40,36,100,71,45,30.35,30.29,30.27,10,10,8,4,0,,0.00,1,,303
2013-11-26,62,50,37,45,41,37,100,76,45,30.27,30.18,30.08,10,9,7,6,1,,0.00,5,,320
2013-11-27,62,52,41,45,42,39,100,71,45,30.02,29.93,29.87,10,10,8,7,3,,0.00,5,,336
2013-11-28,68,54,41,41,40,37,93,70,33,30.06,29.96,29.89,10,10,10,5,1,,0.00,2,,300
2013-11-29,68,54,39,41,39,37,93,66,35,30.22,30.15,30.01,10,10,10,6,1,,0.00,0,,318
2013-11-30,64,52,39,41,39,37,93,72,40,30.28,30.24,30.20,10,10,10,5,2,,0.00,2,,18